createdAt,value
2022-10-07T00:01:57.009Z,12.00
2022-10-07T00:03:58.869Z,11.97
2022-10-07T00:06:16.016Z,11.95
2022-10-07T00:08:17.973Z,11.93
2022-10-07T00:10:19.493Z,11.91
2022-10-07T00:12:24.141Z,11.88
2022-10-07T00:14:25.944Z,11.88
2022-10-07T00:16:30.877Z,11.86
2022-10-07T00:18:33.562Z,11.84
2022-10-07T00:20:39.481Z,11.81
2022-10-07T00:22:41.273Z,11.79
2022-10-07T00:24:43.402Z,11.78
2022-10-07T00:26:45.465Z,11.76
2022-10-07T00:28:47.902Z,11.74
2022-10-07T00:30:57.335Z,11.71
2022-10-07T00:32:59.159Z,11.69
2022-10-07T00:35:00.823Z,11.68
2022-10-07T00:37:05.097Z,11.66
2022-10-07T00:39:11.974Z,11.67
2022-10-07T00:41:19.302Z,11.64
2022-10-07T00:43:27.362Z,11.63
2022-10-07T00:45:29.835Z,11.63
2022-10-07T00:47:35.004Z,11.62
2022-10-07T00:49:47.350Z,11.61
2022-10-07T00:51:51.925Z,11.60
2022-10-07T00:53:55.292Z,11.57
2022-10-07T00:56:02.493Z,11.56
2022-10-07T00:58:09.690Z,11.55
2022-10-07T01:00:11.922Z,11.55
2022-10-07T01:02:13.760Z,11.54
2022-10-07T01:04:15.512Z,11.55
2022-10-07T01:06:20.166Z,11.53
2022-10-07T01:08:23.428Z,11.52
2022-10-07T01:10:47.966Z,11.50
2022-10-07T01:13:05.923Z,11.50
2022-10-07T01:15:28.169Z,11.47
2022-10-07T01:17:38.651Z,11.46
2022-10-07T01:19:55.329Z,11.43
2022-10-07T01:21:58.205Z,11.43
2022-10-07T01:24:26.076Z,11.42
2022-10-07T01:26:46.181Z,11.39
2022-10-07T01:28:54.363Z,11.39
2022-10-07T01:31:00.367Z,11.36
2022-10-07T01:33:08.932Z,11.35
2022-10-07T01:35:16.941Z,11.34
2022-10-07T01:37:19.653Z,11.33
2022-10-07T01:39:27.562Z,11.32
2022-10-07T01:41:31.584Z,11.32
2022-10-07T01:43:34.348Z,11.30
2022-10-07T01:45:40.709Z,11.29
2022-10-07T01:47:42.935Z,11.28
2022-10-07T01:49:47.828Z,11.27
2022-10-07T01:52:25.022Z,11.24
2022-10-07T01:55:07.197Z,11.21
2022-10-07T01:57:14.099Z,11.21
2022-10-07T01:59:20.910Z,11.20
2022-10-07T02:01:38.063Z,11.18
2022-10-07T02:03:58.755Z,11.14
2022-10-07T02:06:03.013Z,11.14
2022-10-07T02:08:13.549Z,11.13
2022-10-07T02:10:26.761Z,11.12
2022-10-07T02:12:43.026Z,11.10
2022-10-07T02:15:10.918Z,11.08
2022-10-07T02:17:21.712Z,11.07
2022-10-07T02:19:28.011Z,11.05
2022-10-07T02:21:33.249Z,11.04
2022-10-07T02:23:41.889Z,11.02
2022-10-07T02:25:54.646Z,11.00
2022-10-07T02:27:57.835Z,10.97
2022-10-07T02:30:06.401Z,10.96
2022-10-07T02:32:13.613Z,10.95
2022-10-07T02:34:20.796Z,10.92
2022-10-07T02:36:29.725Z,10.91
2022-10-07T02:38:31.913Z,10.89
2022-10-07T02:40:41.975Z,10.88
2022-10-07T02:42:55.334Z,10.88
2022-10-07T02:45:16.341Z,10.87
2022-10-07T02:47:25.224Z,10.85
2022-10-07T02:49:29.843Z,10.87
2022-10-07T02:51:46.047Z,10.84
2022-10-07T02:53:51.280Z,10.84
2022-10-07T02:55:55.924Z,10.84
2022-10-07T02:58:01.368Z,10.83
2022-10-07T03:00:10.764Z,10.84
2022-10-07T03:02:31.185Z,10.82
2022-10-07T03:04:33.717Z,10.82
2022-10-07T03:06:36.073Z,10.81
2022-10-07T03:08:37.896Z,10.81
2022-10-07T03:10:40.757Z,10.80
2022-10-07T03:12:44.918Z,10.79
2022-10-07T03:14:49.868Z,10.79
2022-10-07T03:16:53.138Z,10.78
2022-10-07T03:19:01.437Z,10.79
2022-10-07T03:21:09.859Z,10.79
2022-10-07T03:23:12.306Z,10.78
2022-10-07T03:25:15.100Z,10.78
2022-10-07T03:27:17.056Z,10.79
2022-10-07T03:29:19.818Z,10.79
2022-10-07T03:31:25.375Z,10.78
2022-10-07T03:33:30.584Z,10.78
2022-10-07T03:35:32.645Z,10.80
2022-10-07T03:37:34.414Z,10.79
2022-10-07T03:39:37.211Z,10.78
2022-10-07T03:41:39.020Z,10.78
2022-10-07T03:43:40.775Z,10.78
2022-10-07T03:45:51.669Z,10.78
2022-10-07T03:47:53.647Z,10.78
2022-10-07T03:49:57.681Z,10.79
2022-10-07T03:52:00.288Z,10.77
2022-10-07T03:54:05.181Z,10.77
2022-10-07T03:56:09.125Z,10.77
2022-10-07T03:58:14.685Z,10.76
2022-10-07T04:00:21.071Z,10.75
2022-10-07T04:02:27.799Z,10.74
2022-10-07T04:04:30.981Z,10.74
2022-10-07T04:06:38.258Z,10.74
2022-10-07T04:08:44.932Z,10.74
2022-10-07T04:10:47.917Z,10.74
2022-10-07T04:12:49.687Z,10.74
2022-10-07T04:14:51.352Z,10.76
2022-10-07T04:16:53.844Z,10.77
2022-10-07T04:18:56.756Z,10.76
2022-10-07T04:21:01.234Z,10.76
2022-10-07T04:23:06.425Z,10.78
2022-10-07T04:25:29.802Z,10.77
2022-10-07T04:27:50.684Z,10.78
2022-10-07T04:29:54.044Z,10.77
2022-10-07T04:31:58.290Z,10.80
2022-10-07T04:34:00.367Z,10.80
2022-10-07T04:36:10.502Z,10.81
2022-10-07T04:38:19.968Z,10.80
2022-10-07T04:40:24.113Z,10.83
2022-10-07T04:42:45.035Z,10.85
2022-10-07T04:44:47.088Z,10.85
2022-10-07T04:46:48.962Z,10.87
2022-10-07T04:48:52.714Z,10.89
2022-10-07T04:51:07.868Z,10.89
2022-10-07T04:53:14.367Z,10.89
2022-10-07T04:57:35.462Z,10.91
2022-10-07T04:59:41.825Z,10.90
2022-10-07T05:01:45.827Z,10.92
2022-10-07T05:03:47.831Z,10.91
2022-10-07T05:05:52.414Z,10.92
2022-10-07T05:07:56.858Z,10.93
2022-10-07T05:10:02.312Z,10.95
2022-10-07T05:12:06.274Z,10.94
2022-10-07T05:14:09.208Z,10.96
2022-10-07T05:16:12.219Z,10.97
2022-10-07T05:18:15.636Z,10.97
2022-10-07T05:20:18.704Z,11.00
2022-10-07T05:22:20.343Z,11.01
2022-10-07T05:24:22.009Z,11.02
2022-10-07T05:26:24.344Z,11.02
2022-10-07T05:28:31.758Z,11.03
2022-10-07T05:30:37.293Z,11.05
2022-10-07T05:32:40.034Z,11.07
2022-10-07T05:34:42.551Z,11.09
2022-10-07T05:36:45.221Z,11.10
2022-10-07T05:38:47.812Z,11.11
2022-10-07T05:40:58.856Z,11.15
2022-10-07T05:43:04.900Z,11.16
2022-10-07T05:45:07.308Z,11.18
2022-10-07T05:47:09.360Z,11.19
2022-10-07T05:49:15.660Z,11.23
2022-10-07T05:51:22.798Z,11.24
2022-10-07T05:53:26.496Z,11.26
2022-10-07T05:55:28.201Z,11.26
2022-10-07T05:57:29.901Z,11.29
2022-10-07T05:59:32.897Z,11.30
2022-10-07T06:01:35.091Z,11.32
2022-10-07T06:03:44.016Z,11.33
2022-10-07T06:05:47.063Z,11.35
2022-10-07T06:07:48.731Z,11.37
2022-10-07T06:10:09.270Z,11.39
2022-10-07T06:12:29.902Z,11.40
2022-10-07T06:14:33.089Z,11.42
2022-10-07T06:16:35.305Z,11.43
2022-10-07T06:18:37.387Z,11.45
2022-10-07T06:20:43.246Z,11.46
2022-10-07T06:22:45.240Z,11.49
2022-10-07T06:24:52.184Z,11.49
2022-10-07T06:26:57.774Z,11.52
2022-10-07T06:28:59.944Z,11.55
2022-10-07T06:31:05.310Z,11.60
2022-10-07T06:33:09.460Z,11.63
2022-10-07T06:35:11.169Z,11.64
2022-10-07T06:37:16.432Z,11.67
2022-10-07T06:39:18.185Z,11.69
2022-10-07T06:41:23.586Z,11.72
2022-10-07T06:43:37.518Z,11.76
2022-10-07T06:45:43.244Z,11.79
2022-10-07T06:47:46.592Z,11.83
2022-10-07T06:49:49.154Z,11.87
2022-10-07T06:51:50.920Z,11.88
2022-10-07T06:53:54.590Z,11.93
2022-10-07T06:55:59.343Z,11.97
2022-10-07T06:58:03.503Z,12.00
2022-10-07T07:00:08.918Z,12.03
2022-10-07T07:02:11.897Z,12.06
2022-10-07T07:04:14.924Z,12.10
2022-10-07T07:06:17.213Z,12.14
2022-10-07T07:08:20.195Z,12.17
2022-10-07T07:10:22.325Z,12.18
2022-10-07T07:12:26.815Z,12.21
2022-10-07T07:14:32.424Z,12.25
2022-10-07T07:16:40.114Z,12.30
2022-10-07T07:18:43.418Z,12.34
2022-10-07T07:20:45.279Z,12.38
2022-10-07T07:22:46.835Z,12.40
2022-10-07T07:24:48.445Z,12.45
2022-10-07T07:26:50.834Z,12.49
2022-10-07T07:29:05.347Z,12.49
2022-10-07T07:31:14.975Z,12.53
2022-10-07T07:33:16.946Z,12.58
2022-10-07T07:35:19.106Z,12.61
2022-10-07T07:37:21.004Z,12.66
2022-10-07T07:39:26.393Z,12.69
2022-10-07T07:41:46.011Z,12.73
2022-10-07T07:43:52.078Z,12.74
2022-10-07T07:45:55.435Z,12.77
2022-10-07T07:47:58.166Z,12.81
2022-10-07T07:50:05.159Z,12.83
2022-10-07T07:52:08.622Z,12.86
2022-10-07T07:54:16.363Z,12.88
2022-10-07T07:56:21.440Z,12.89
2022-10-07T07:58:24.840Z,12.90
2022-10-07T08:00:27.362Z,12.96
2022-10-07T08:02:37.425Z,13.01
2022-10-07T08:04:39.364Z,13.04
2022-10-07T08:06:42.317Z,13.08
2022-10-07T08:08:43.949Z,13.13
2022-10-07T08:10:51.692Z,13.15
2022-10-07T08:12:54.918Z,13.20
2022-10-07T08:14:58.179Z,13.25
2022-10-07T08:17:02.760Z,13.29
2022-10-07T08:19:06.020Z,13.34
2022-10-07T08:21:10.677Z,13.38
2022-10-07T08:23:12.425Z,13.42
2022-10-07T08:25:15.349Z,13.45
2022-10-07T08:27:16.936Z,13.46
2022-10-07T08:29:18.580Z,13.49
2022-10-07T08:31:21.154Z,13.51
2022-10-07T08:33:23.225Z,13.57
2022-10-07T08:35:24.910Z,13.63
2022-10-07T08:37:26.717Z,13.68
2022-10-07T08:39:29.597Z,13.74
2022-10-07T08:41:34.336Z,13.79
2022-10-07T08:43:49.224Z,13.85
2022-10-07T08:45:54.859Z,13.91
2022-10-07T08:48:02.655Z,13.96
2022-10-07T08:50:05.344Z,14.05
2022-10-07T08:52:29.015Z,14.08
2022-10-07T08:54:30.883Z,14.17
2022-10-07T08:56:33.985Z,14.23
2022-10-07T08:59:06.940Z,14.26
2022-10-07T09:01:31.047Z,14.37
2022-10-07T09:03:46.256Z,14.47
2022-10-07T09:05:50.349Z,14.54
2022-10-07T09:07:56.387Z,14.60
2022-10-07T09:10:10.749Z,14.68
2022-10-07T09:12:24.257Z,14.73
2022-10-07T09:14:33.312Z,14.78
2022-10-07T09:16:43.400Z,14.86
2022-10-07T09:18:58.841Z,14.91
2022-10-07T09:21:05.630Z,14.98
2022-10-07T09:23:14.136Z,15.04
2022-10-07T09:25:30.253Z,15.12
2022-10-07T09:27:33.232Z,15.17
2022-10-07T09:29:36.533Z,15.26
2022-10-07T09:31:40.053Z,15.33
2022-10-07T09:33:44.661Z,15.39
2022-10-07T09:35:58.126Z,15.44
2022-10-07T09:38:03.435Z,15.49
2022-10-07T09:41:02.445Z,15.53
2022-10-07T09:43:20.674Z,15.57
2022-10-07T09:45:27.927Z,15.61
2022-10-07T09:47:37.013Z,15.64
2022-10-07T09:49:48.997Z,15.69
2022-10-07T09:52:14.307Z,15.73
2022-10-07T09:54:20.486Z,15.79
2022-10-07T09:56:44.440Z,15.83
2022-10-07T09:58:46.097Z,15.87
2022-10-07T10:00:50.217Z,15.92
2022-10-07T10:03:02.659Z,15.98
2022-10-07T10:05:20.510Z,16.01
2022-10-07T10:07:29.015Z,16.08
2022-10-07T10:09:32.031Z,16.16
2022-10-07T10:11:33.690Z,16.24
2022-10-07T10:13:38.586Z,16.27
2022-10-07T10:15:42.994Z,16.32
2022-10-07T10:17:44.713Z,16.38
2022-10-07T10:19:46.790Z,16.42
2022-10-07T10:21:56.121Z,16.48
2022-10-07T10:24:12.157Z,16.56
2022-10-07T10:26:30.836Z,16.61
2022-10-07T10:28:53.740Z,16.68
2022-10-07T10:31:06.485Z,16.76
2022-10-07T10:33:14.744Z,16.90
2022-10-07T10:35:31.031Z,17.00
2022-10-07T10:37:41.653Z,17.15
2022-10-07T10:40:02.057Z,17.28
2022-10-07T10:42:11.914Z,17.45
2022-10-07T10:44:33.081Z,17.61
2022-10-07T10:47:07.268Z,17.79
2022-10-07T10:49:44.430Z,17.99
2022-10-07T10:51:55.853Z,18.18
2022-10-07T10:54:12.955Z,18.33
2022-10-07T10:56:34.388Z,18.48
2022-10-07T10:59:09.885Z,18.63
2022-10-07T11:01:14.220Z,18.78
2022-10-07T11:03:42.213Z,18.91
2022-10-07T11:05:48.481Z,19.06
2022-10-07T11:08:11.370Z,19.16
2022-10-07T11:10:26.981Z,19.27
2022-10-07T11:12:33.799Z,19.37
2022-10-07T11:14:45.632Z,19.47
2022-10-07T11:17:03.641Z,19.55
2022-10-07T11:19:16.578Z,19.63
2022-10-07T11:21:39.126Z,19.75
2022-10-07T11:23:56.196Z,19.82
2022-10-07T11:26:15.367Z,19.92
2022-10-07T11:28:23.126Z,20.01
2022-10-07T11:30:41.856Z,20.10
2022-10-07T11:32:58.387Z,20.18
2022-10-07T11:35:14.473Z,20.27
2022-10-07T11:37:50.385Z,20.38
2022-10-07T11:39:53.924Z,20.47
2022-10-07T11:42:06.050Z,20.56
2022-10-07T11:44:17.899Z,20.66
2022-10-07T11:46:34.209Z,20.75
2022-10-07T11:48:52.971Z,20.82
2022-10-07T11:51:04.864Z,20.89
2022-10-07T11:53:10.898Z,20.97
2022-10-07T11:55:29.644Z,21.03
2022-10-07T11:57:34.682Z,21.09
2022-10-07T11:59:48.852Z,21.13
2022-10-07T12:01:52.701Z,21.18
2022-10-07T12:03:54.502Z,21.25
2022-10-07T12:06:06.504Z,21.28
2022-10-07T12:08:40.648Z,21.35
2022-10-07T12:10:42.531Z,21.41
2022-10-07T12:12:47.445Z,21.48
2022-10-07T12:15:01.206Z,21.53
2022-10-07T12:17:19.257Z,21.62
2022-10-07T12:19:23.909Z,21.71
2022-10-07T12:21:26.136Z,21.79
2022-10-07T12:23:28.523Z,21.87
2022-10-07T12:25:59.651Z,21.96
2022-10-07T12:28:02.760Z,22.04
2022-10-07T12:30:04.870Z,22.10
2022-10-07T12:32:45.218Z,22.17
2022-10-07T12:34:47.498Z,22.24
2022-10-07T12:36:49.717Z,22.30
2022-10-07T12:39:00.198Z,22.37
2022-10-07T12:41:11.237Z,22.42
2022-10-07T12:43:56.079Z,22.49
2022-10-07T12:46:00.890Z,22.58
2022-10-07T12:48:04.711Z,22.69
2022-10-07T12:50:12.729Z,22.79
2022-10-07T12:52:32.417Z,22.89
2022-10-07T12:54:37.863Z,22.99
2022-10-07T12:56:44.074Z,23.07
2022-10-07T12:59:24.522Z,23.17
2022-10-07T13:01:58.678Z,23.29
2022-10-07T13:04:23.177Z,23.39
2022-10-07T13:06:56.596Z,23.51
2022-10-07T13:09:19.708Z,23.62
2022-10-07T13:11:47.519Z,23.76
2022-10-07T13:14:23.247Z,23.88
2022-10-07T13:16:36.574Z,24.01
2022-10-07T13:18:48.312Z,24.10
2022-10-07T13:21:02.333Z,24.15
2022-10-07T13:23:12.262Z,24.21
2022-10-07T13:25:17.170Z,24.27
2022-10-07T13:27:24.727Z,24.32
2022-10-07T13:29:30.705Z,24.37
2022-10-07T13:31:36.101Z,24.41
2022-10-07T13:33:38.165Z,24.48
2022-10-07T13:35:40.077Z,24.54
2022-10-07T13:37:48.124Z,24.60
2022-10-07T13:39:49.666Z,24.64
2022-10-07T13:41:56.891Z,24.69
2022-10-07T13:44:02.229Z,24.73
2022-10-07T13:46:08.037Z,24.77
2022-10-07T13:48:25.612Z,24.80
2022-10-07T13:50:30.855Z,24.83
2022-10-07T13:52:39.660Z,24.86
2022-10-07T13:54:41.824Z,24.88
2022-10-07T13:56:44.229Z,24.89
2022-10-07T13:58:46.431Z,24.92
2022-10-07T14:00:49.262Z,24.93
2022-10-07T14:02:51.698Z,24.96
2022-10-07T14:05:20.573Z,24.95
2022-10-07T14:07:25.033Z,24.95
2022-10-07T14:09:48.737Z,24.94
2022-10-07T14:11:54.746Z,24.89
2022-10-07T14:13:59.369Z,24.87
2022-10-07T14:16:04.670Z,24.84
2022-10-07T14:18:08.279Z,24.80
2022-10-07T14:20:30.336Z,24.76
2022-10-07T14:22:41.132Z,24.72
2022-10-07T14:24:53.275Z,24.70
2022-10-07T14:26:55.760Z,24.70
2022-10-07T14:28:57.964Z,24.69
2022-10-07T14:31:27.640Z,24.66
2022-10-07T14:33:58.489Z,24.65
2022-10-07T14:36:21.122Z,24.62
2022-10-07T14:38:29.207Z,24.58
2022-10-07T14:40:31.022Z,24.56
2022-10-07T14:42:38.566Z,24.52
2022-10-07T14:44:44.073Z,24.49
2022-10-07T14:46:57.411Z,24.44
2022-10-07T14:49:02.024Z,24.36
2022-10-07T14:51:13.418Z,24.33
2022-10-07T14:53:27.537Z,24.27
2022-10-07T14:55:33.304Z,24.20
2022-10-07T14:57:35.076Z,24.16
2022-10-07T14:59:38.081Z,24.10
2022-10-07T15:01:39.674Z,24.06
2022-10-07T15:03:41.412Z,24.02
2022-10-07T15:05:43.404Z,23.96
2022-10-07T15:07:45.461Z,23.92
2022-10-07T15:09:47.213Z,23.89
2022-10-07T15:11:48.928Z,23.84
2022-10-07T15:13:50.607Z,23.80
2022-10-07T15:15:52.503Z,23.76
2022-10-07T15:17:57.826Z,23.72
2022-10-07T15:20:01.928Z,23.68
2022-10-07T15:22:04.299Z,23.64
2022-10-07T15:24:06.061Z,23.58
2022-10-07T15:26:09.833Z,23.54
2022-10-07T15:28:11.690Z,23.49
2022-10-07T15:30:13.798Z,23.45
2022-10-07T15:32:18.708Z,23.41
2022-10-07T15:34:20.433Z,23.35
2022-10-07T15:36:22.807Z,23.32
2022-10-07T15:38:29.492Z,23.27
2022-10-07T15:40:31.445Z,23.23
2022-10-07T15:42:33.230Z,23.17
2022-10-07T15:44:34.989Z,23.14
2022-10-07T15:46:36.775Z,23.11
2022-10-07T15:48:38.459Z,23.06
2022-10-07T15:50:48.237Z,23.00
2022-10-07T15:52:49.854Z,22.97
2022-10-07T15:54:51.826Z,22.92
2022-10-07T15:56:54.286Z,22.89
2022-10-07T15:58:56.161Z,22.85
2022-10-07T16:01:04.169Z,22.80
2022-10-07T16:03:06.030Z,22.74
2022-10-07T16:05:09.474Z,22.71
2022-10-07T16:07:12.142Z,22.66
2022-10-07T16:09:16.479Z,22.60
2022-10-07T16:11:18.383Z,22.56
2022-10-07T16:13:20.236Z,22.49
2022-10-07T16:15:21.933Z,22.42
2022-10-07T16:17:23.502Z,22.36
2022-10-07T16:19:26.261Z,22.29
2022-10-07T16:21:33.517Z,22.23
2022-10-07T16:23:39.779Z,22.17
2022-10-07T16:25:44.321Z,22.12
2022-10-07T16:28:04.652Z,22.08
2022-10-07T16:30:25.771Z,22.00
2022-10-07T16:32:27.398Z,21.93
2022-10-07T16:34:29.160Z,21.88
2022-10-07T16:36:31.312Z,21.82
2022-10-07T16:38:33.219Z,21.76
2022-10-07T16:40:34.969Z,21.71
2022-10-07T16:42:36.762Z,21.67
2022-10-07T16:44:38.850Z,21.61
2022-10-07T16:46:41.005Z,21.54
2022-10-07T16:48:46.035Z,21.47
2022-10-07T16:50:48.502Z,21.41
2022-10-07T16:52:50.037Z,21.35
2022-10-07T16:54:51.651Z,21.30
2022-10-07T16:56:53.784Z,21.22
2022-10-07T16:58:57.609Z,21.17
2022-10-07T17:01:16.889Z,21.10
2022-10-07T17:03:20.286Z,21.04
2022-10-07T17:05:22.003Z,20.99
2022-10-07T17:07:23.550Z,20.92
2022-10-07T17:09:26.763Z,20.88
2022-10-07T17:11:28.758Z,20.83
2022-10-07T17:13:35.011Z,20.78
2022-10-07T17:15:40.686Z,20.72
2022-10-07T17:17:43.567Z,20.68
2022-10-07T17:19:46.267Z,20.61
2022-10-07T17:21:52.677Z,20.55
2022-10-07T17:23:58.335Z,20.49
2022-10-07T17:26:12.501Z,20.43
2022-10-07T17:28:14.156Z,20.39
2022-10-07T17:30:19.004Z,20.35
2022-10-07T17:32:21.261Z,20.29
2022-10-07T17:34:22.970Z,20.24
2022-10-07T17:36:25.940Z,20.20
2022-10-07T17:38:35.159Z,20.15
2022-10-07T17:40:39.940Z,20.11
2022-10-07T17:42:41.562Z,20.08
2022-10-07T17:44:45.168Z,20.03
2022-10-07T17:46:49.041Z,19.99
2022-10-07T17:48:52.662Z,19.96
2022-10-07T17:50:54.263Z,19.93
2022-10-07T17:52:58.039Z,19.88
2022-10-07T17:54:59.726Z,19.84
2022-10-07T17:57:02.384Z,19.81
2022-10-07T17:59:05.384Z,19.77
2022-10-07T18:01:14.039Z,19.74
2022-10-07T18:03:15.748Z,19.71
2022-10-07T18:05:19.715Z,19.68
2022-10-07T18:07:25.448Z,19.66
2022-10-07T18:09:27.472Z,19.62
2022-10-07T18:11:47.782Z,19.60
2022-10-07T18:14:27.911Z,19.56
2022-10-07T18:16:34.279Z,19.51
2022-10-07T18:18:35.864Z,19.47
2022-10-07T18:20:38.288Z,19.46
2022-10-07T18:22:40.018Z,19.42
2022-10-07T18:24:42.389Z,19.39
2022-10-07T18:26:44.379Z,19.36
2022-10-07T18:28:46.825Z,19.33
2022-10-07T18:30:48.781Z,19.29
2022-10-07T18:32:50.475Z,19.28
2022-10-07T18:34:52.385Z,19.25
2022-10-07T18:36:56.993Z,19.21
2022-10-07T18:38:59.318Z,19.18
2022-10-07T18:41:06.338Z,19.15
2022-10-07T18:43:08.005Z,19.12
2022-10-07T18:45:09.935Z,19.08
2022-10-07T18:47:11.915Z,19.04
2022-10-07T18:49:13.906Z,19.01
2022-10-07T18:51:16.863Z,18.99
2022-10-07T18:53:18.900Z,18.94
2022-10-07T18:55:20.560Z,18.92
2022-10-07T18:57:23.359Z,18.88
2022-10-07T18:59:25.086Z,18.85
2022-10-07T19:01:31.394Z,18.81
2022-10-07T19:03:36.571Z,18.80
2022-10-07T19:05:42.361Z,18.77
2022-10-07T19:07:44.447Z,18.75
2022-10-07T19:09:46.413Z,18.74
2022-10-07T19:11:48.668Z,18.73
2022-10-07T19:13:54.077Z,18.70
2022-10-07T19:15:55.978Z,18.66
2022-10-07T19:17:57.867Z,18.65
2022-10-07T19:20:00.934Z,18.66
2022-10-07T19:22:02.862Z,18.66
2022-10-07T19:24:04.766Z,18.67
2022-10-07T19:26:08.137Z,18.68
2022-10-07T19:28:09.755Z,18.67
2022-10-07T19:30:11.508Z,18.66
2022-10-07T19:32:14.081Z,18.65
2022-10-07T19:34:18.781Z,18.61
2022-10-07T19:36:21.949Z,18.60
2022-10-07T19:38:23.855Z,18.56
2022-10-07T19:40:27.293Z,18.53
2022-10-07T19:42:29.736Z,18.48
2022-10-07T19:44:32.322Z,18.45
2022-10-07T19:46:34.123Z,18.39
2022-10-07T19:48:36.822Z,18.37
2022-10-07T19:50:38.921Z,18.35
2022-10-07T19:52:40.333Z,18.31
2022-10-07T19:54:46.009Z,18.27
2022-10-07T19:56:47.783Z,18.24
2022-10-07T19:58:51.781Z,18.21
2022-10-07T20:01:11.600Z,18.19
2022-10-07T20:03:13.293Z,18.17
2022-10-07T20:05:19.588Z,18.16
2022-10-07T20:07:21.544Z,18.17
2022-10-07T20:09:23.129Z,18.16
2022-10-07T20:11:25.868Z,18.15
2022-10-07T20:13:35.878Z,18.14
2022-10-07T20:15:39.360Z,18.14
2022-10-07T20:17:45.196Z,18.12
2022-10-07T20:19:47.729Z,18.11
2022-10-07T20:21:52.483Z,18.09
2022-10-07T20:24:04.127Z,18.09
2022-10-07T20:26:08.829Z,18.07
2022-10-07T20:28:10.643Z,18.05
2022-10-07T20:30:17.863Z,18.04
2022-10-07T20:32:28.449Z,18.02
2022-10-07T20:34:30.061Z,18.02
2022-10-07T20:36:35.127Z,18.01
2022-10-07T20:39:01.672Z,18.00
2022-10-07T20:41:22.178Z,17.99
2022-10-07T20:43:23.803Z,17.98
2022-10-07T20:45:25.386Z,17.96
2022-10-07T20:47:31.201Z,17.96
2022-10-07T20:49:37.420Z,17.94
2022-10-07T20:51:43.536Z,17.92
2022-10-07T20:53:50.499Z,17.93
2022-10-07T20:55:52.058Z,17.92
2022-10-07T20:57:56.203Z,17.94
2022-10-07T20:59:57.999Z,17.95
2022-10-07T21:02:03.825Z,17.96
2022-10-07T21:04:11.707Z,17.96
2022-10-07T21:06:13.478Z,17.97
2022-10-07T21:08:15.233Z,17.97
2022-10-07T21:10:21.141Z,17.99
2022-10-07T21:12:23.158Z,17.97
2022-10-07T21:14:24.787Z,17.97
2022-10-07T21:16:29.389Z,17.95
2022-10-07T21:18:31.709Z,17.96
2022-10-07T21:20:35.780Z,17.96
2022-10-07T21:22:37.468Z,17.96
2022-10-07T21:24:39.307Z,17.95
2022-10-07T21:26:41.085Z,17.95
2022-10-07T21:28:50.443Z,17.95
2022-10-07T21:30:56.827Z,17.96
2022-10-07T21:32:58.744Z,17.97
2022-10-07T21:35:00.511Z,17.96
2022-10-07T21:37:02.801Z,17.97
2022-10-07T21:39:05.859Z,17.96
2022-10-07T21:41:31.161Z,17.96
2022-10-07T21:43:32.981Z,17.95
2022-10-07T21:45:34.721Z,17.94
2022-10-07T21:47:36.743Z,17.95
2022-10-07T21:49:43.592Z,17.95
2022-10-07T21:51:48.398Z,17.95
2022-10-07T21:53:51.317Z,17.96
2022-10-07T21:55:53.957Z,17.95
2022-10-07T21:57:55.362Z,17.96
2022-10-07T21:59:56.899Z,17.98
2022-10-07T22:02:01.413Z,17.99
2022-10-07T22:04:03.668Z,17.99
2022-10-07T22:06:14.103Z,18.01
2022-10-07T22:08:37.369Z,18.03
2022-10-07T22:10:39.018Z,18.02
2022-10-07T22:12:44.365Z,18.00
2022-10-07T22:14:47.035Z,18.00
2022-10-07T22:16:49.885Z,18.00
2022-10-07T22:18:53.624Z,18.01
2022-10-07T22:20:55.168Z,18.02
2022-10-07T22:22:59.826Z,18.04
2022-10-07T22:25:01.750Z,18.05
2022-10-07T22:27:04.634Z,18.05
2022-10-07T22:29:09.460Z,18.04
2022-10-07T22:31:11.223Z,18.02
2022-10-07T22:33:15.232Z,18.02
2022-10-07T22:35:34.991Z,18.02
2022-10-07T22:37:36.878Z,18.02
2022-10-07T22:39:38.710Z,18.04
2022-10-07T22:41:40.665Z,18.03
2022-10-07T22:43:48.925Z,18.04
2022-10-07T22:45:57.957Z,18.05
2022-10-07T22:47:59.987Z,18.05
2022-10-07T22:50:05.451Z,18.05
2022-10-07T22:52:07.769Z,18.03
2022-10-07T22:54:18.133Z,18.03
2022-10-07T22:56:21.632Z,18.03
2022-10-07T22:58:23.246Z,18.02
2022-10-07T23:00:25.191Z,18.01
2022-10-07T23:02:26.893Z,18.01
2022-10-07T23:04:28.461Z,18.01
2022-10-07T23:06:37.373Z,18.00
2022-10-07T23:08:44.108Z,18.00
2022-10-07T23:10:55.676Z,18.00
2022-10-07T23:12:57.391Z,18.00
2022-10-07T23:14:59.103Z,18.00
2022-10-07T23:17:01.101Z,18.01
2022-10-07T23:19:02.799Z,18.01
2022-10-07T23:21:08.392Z,18.00
2022-10-07T23:23:10.471Z,17.98
2022-10-07T23:25:13.135Z,17.97
2022-10-07T23:27:15.087Z,17.98
2022-10-07T23:29:20.506Z,17.98
2022-10-07T23:31:26.323Z,17.97
2022-10-07T23:33:28.037Z,17.96
2022-10-07T23:35:32.059Z,17.97
2022-10-07T23:37:33.672Z,17.96
2022-10-07T23:39:35.241Z,17.95
2022-10-07T23:41:36.980Z,17.93
2022-10-07T23:43:38.941Z,17.94
2022-10-07T23:45:42.976Z,17.93
2022-10-07T23:47:44.761Z,17.93
2022-10-07T23:49:46.486Z,17.93
2022-10-07T23:51:48.811Z,17.93
2022-10-07T23:53:51.193Z,17.93
2022-10-07T23:55:53.210Z,17.92
2022-10-07T23:57:54.892Z,17.91
2022-10-07T23:59:56.343Z,17.91
